sensor_id;sensor_type;location;lat;lon;timestamp;temperature;humidity
5980;DHT22;3016;50.308;8.258;2023-04-06T00:02:40;-0.60;1.00
5980;DHT22;3016;50.308;8.258;2023-04-06T00:05:44;-0.60;1.00
5980;DHT22;3016;50.308;8.258;2023-04-06T00:08:47;-0.70;1.00
5980;DHT22;3016;50.308;8.258;2023-04-06T00:11:49;-0.70;1.00
5980;DHT22;3016;50.308;8.258;2023-04-06T00:14:51;-0.60;1.00
5980;DHT22;3016;50.308;8.258;2023-04-06T00:17:52;-0.60;1.00
5980;DHT22;3016;50.308;8.258;2023-04-06T00:21:12;-0.70;1.00
5980;DHT22;3016;50.308;8.258;2023-04-06T00:24:15;-0.70;1.00
5980;DHT22;3016;50.308;8.258;2023-04-06T00:27:17;-0.70;1.00
5980;DHT22;3016;50.308;8.258;2023-04-06T00:30:19;-0.80;1.00
5980;DHT22;3016;50.308;8.258;2023-04-06T00:33:21;-0.80;1.00
5980;DHT22;3016;50.308;8.258;2023-04-06T00:36:22;-0.80;1.00
5980;DHT22;3016;50.308;8.258;2023-04-06T00:39:25;-0.80;1.00
5980;DHT22;3016;50.308;8.258;2023-04-06T00:42:27;-0.90;1.00
5980;DHT22;3016;50.308;8.258;2023-04-06T00:45:29;-0.90;1.00
5980;DHT22;3016;50.308;8.258;2023-04-06T00:48:30;-1.00;1.00
5980;DHT22;3016;50.308;8.258;2023-04-06T00:51:31;-1.10;1.00
5980;DHT22;3016;50.308;8.258;2023-04-06T00:54:32;-1.10;1.00
5980;DHT22;3016;50.308;8.258;2023-04-06T00:57:33;-1.10;1.00
5980;DHT22;3016;50.308;8.258;2023-04-06T01:00:34;-1.20;1.00
5980;DHT22;3016;50.308;8.258;2023-04-06T01:03:34;-1.20;1.00
5980;DHT22;3016;50.308;8.258;2023-04-06T01:06:35;-1.20;1.00
5980;DHT22;3016;50.308;8.258;2023-04-06T01:09:36;-1.20;1.00
5980;DHT22;3016;50.308;8.258;2023-04-06T01:12:37;-1.30;1.00
5980;DHT22;3016;50.308;8.258;2023-04-06T01:15:39;-1.30;1.00
5980;DHT22;3016;50.308;8.258;2023-04-06T01:18:40;-1.40;1.00
5980;DHT22;3016;50.308;8.258;2023-04-06T01:21:42;-1.40;1.00
5980;DHT22;3016;50.308;8.258;2023-04-06T01:24:43;-1.40;1.00
5980;DHT22;3016;50.308;8.258;2023-04-06T01:27:44;-1.40;1.00
5980;DHT22;3016;50.308;8.258;2023-04-06T01:30:44;-1.50;1.00
5980;DHT22;3016;50.308;8.258;2023-04-06T01:33:45;-1.50;1.00
5980;DHT22;3016;50.308;8.258;2023-04-06T01:36:47;-1.60;1.00
5980;DHT22;3016;50.308;8.258;2023-04-06T01:39:47;-1.60;1.00
5980;DHT22;3016;50.308;8.258;2023-04-06T01:42:48;-1.60;1.00
5980;DHT22;3016;50.308;8.258;2023-04-06T01:45:49;-1.60;1.00
5980;DHT22;3016;50.308;8.258;2023-04-06T01:48:50;-1.60;1.00
5980;DHT22;3016;50.308;8.258;2023-04-06T01:51:50;-1.70;1.00
5980;DHT22;3016;50.308;8.258;2023-04-06T01:54:52;-1.70;1.00
5980;DHT22;3016;50.308;8.258;2023-04-06T01:57:52;-1.70;1.00
5980;DHT22;3016;50.308;8.258;2023-04-06T02:00:53;-1.70;1.00
5980;DHT22;3016;50.308;8.258;2023-04-06T02:03:54;-1.70;1.00
5980;DHT22;3016;50.308;8.258;2023-04-06T02:06:55;-1.70;1.00
5980;DHT22;3016;50.308;8.258;2023-04-06T02:09:55;-1.70;1.00
5980;DHT22;3016;50.308;8.258;2023-04-06T02:12:56;-1.70;1.00
5980;DHT22;3016;50.308;8.258;2023-04-06T02:15:57;-1.80;1.00
5980;DHT22;3016;50.308;8.258;2023-04-06T02:18:58;-1.80;1.00
5980;DHT22;3016;50.308;8.258;2023-04-06T02:21:58;-1.80;1.00
5980;DHT22;3016;50.308;8.258;2023-04-06T02:24:59;-1.90;1.00
5980;DHT22;3016;50.308;8.258;2023-04-06T02:27:59;-1.90;1.00
5980;DHT22;3016;50.308;8.258;2023-04-06T02:31:00;-1.90;1.00
5980;DHT22;3016;50.308;8.258;2023-04-06T02:34:01;-1.90;1.00
5980;DHT22;3016;50.308;8.258;2023-04-06T02:37:02;-1.90;1.00
5980;DHT22;3016;50.308;8.258;2023-04-06T02:40:03;-1.90;1.00
5980;DHT22;3016;50.308;8.258;2023-04-06T02:43:04;-1.90;1.00
5980;DHT22;3016;50.308;8.258;2023-04-06T02:46:05;-1.90;1.00
5980;DHT22;3016;50.308;8.258;2023-04-06T02:49:05;-1.90;1.00
5980;DHT22;3016;50.308;8.258;2023-04-06T02:52:06;-2.00;1.00
5980;DHT22;3016;50.308;8.258;2023-04-06T02:55:07;-2.00;1.00
5980;DHT22;3016;50.308;8.258;2023-04-06T02:58:08;-2.00;1.00
5980;DHT22;3016;50.308;8.258;2023-04-06T03:01:08;-2.10;1.00
5980;DHT22;3016;50.308;8.258;2023-04-06T03:04:09;-2.10;1.00
5980;DHT22;3016;50.308;8.258;2023-04-06T03:07:11;-2.10;1.00
5980;DHT22;3016;50.308;8.258;2023-04-06T03:10:11;-2.10;1.00
5980;DHT22;3016;50.308;8.258;2023-04-06T03:13:12;-2.10;1.00
5980;DHT22;3016;50.308;8.258;2023-04-06T03:16:13;-2.10;1.00
5980;DHT22;3016;50.308;8.258;2023-04-06T03:19:13;-2.20;1.00
5980;DHT22;3016;50.308;8.258;2023-04-06T03:22:14;-2.20;1.00
5980;DHT22;3016;50.308;8.258;2023-04-06T03:25:15;-2.20;1.00
5980;DHT22;3016;50.308;8.258;2023-04-06T03:28:15;-2.20;1.00
5980;DHT22;3016;50.308;8.258;2023-04-06T03:31:16;-2.20;1.00
5980;DHT22;3016;50.308;8.258;2023-04-06T03:34:17;-2.20;1.00
5980;DHT22;3016;50.308;8.258;2023-04-06T03:37:17;-2.20;1.00
5980;DHT22;3016;50.308;8.258;2023-04-06T03:40:18;-2.30;1.00
5980;DHT22;3016;50.308;8.258;2023-04-06T03:43:19;-2.40;1.00
5980;DHT22;3016;50.308;8.258;2023-04-06T03:46:20;-2.40;1.00
5980;DHT22;3016;50.308;8.258;2023-04-06T03:49:20;-2.40;1.00
5980;DHT22;3016;50.308;8.258;2023-04-06T03:52:21;-2.40;1.00
5980;DHT22;3016;50.308;8.258;2023-04-06T03:55:23;-2.40;1.00
5980;DHT22;3016;50.308;8.258;2023-04-06T03:58:23;-2.40;1.00
5980;DHT22;3016;50.308;8.258;2023-04-06T04:01:24;-2.50;1.00
5980;DHT22;3016;50.308;8.258;2023-04-06T04:04:25;-2.50;1.00
5980;DHT22;3016;50.308;8.258;2023-04-06T04:07:25;-2.40;1.00
5980;DHT22;3016;50.308;8.258;2023-04-06T04:10:26;-2.40;1.00
5980;DHT22;3016;50.308;8.258;2023-04-06T04:13:27;-2.40;1.00
5980;DHT22;3016;50.308;8.258;2023-04-06T04:16:27;-2.40;1.00
5980;DHT22;3016;50.308;8.258;2023-04-06T04:19:28;-2.40;1.00
5980;DHT22;3016;50.308;8.258;2023-04-06T04:22:29;-2.40;1.00
5980;DHT22;3016;50.308;8.258;2023-04-06T04:25:29;-2.40;1.00
5980;DHT22;3016;50.308;8.258;2023-04-06T04:28:30;-2.40;1.00
5980;DHT22;3016;50.308;8.258;2023-04-06T04:31:31;-2.50;1.00
5980;DHT22;3016;50.308;8.258;2023-04-06T04:34:31;-2.50;1.00
5980;DHT22;3016;50.308;8.258;2023-04-06T04:37:33;-2.50;1.00
5980;DHT22;3016;50.308;8.258;2023-04-06T04:40:35;-2.60;1.00
5980;DHT22;3016;50.308;8.258;2023-04-06T04:43:35;-2.60;1.00
5980;DHT22;3016;50.308;8.258;2023-04-06T04:46:36;-2.60;1.00
5980;DHT22;3016;50.308;8.258;2023-04-06T04:49:36;-2.70;1.00
5980;DHT22;3016;50.308;8.258;2023-04-06T04:52:37;-2.70;1.00
5980;DHT22;3016;50.308;8.258;2023-04-06T04:55:38;-2.70;1.00
5980;DHT22;3016;50.308;8.258;2023-04-06T04:58:39;-2.70;1.00
5980;DHT22;3016;50.308;8.258;2023-04-06T05:01:39;-2.70;1.00
5980;DHT22;3016;50.308;8.258;2023-04-06T05:04:40;-2.70;1.00
5980;DHT22;3016;50.308;8.258;2023-04-06T05:07:41;-2.80;1.00
5980;DHT22;3016;50.308;8.258;2023-04-06T05:10:41;-2.80;1.00
5980;DHT22;3016;50.308;8.258;2023-04-06T05:13:42;-2.70;1.00
5980;DHT22;3016;50.308;8.258;2023-04-06T05:16:43;-2.70;1.00
5980;DHT22;3016;50.308;8.258;2023-04-06T05:19:44;-2.60;1.00
5980;DHT22;3016;50.308;8.258;2023-04-06T05:22:45;-2.70;1.00
5980;DHT22;3016;50.308;8.258;2023-04-06T05:25:46;-2.70;1.00
5980;DHT22;3016;50.308;8.258;2023-04-06T05:28:47;-2.70;1.00
5980;DHT22;3016;50.308;8.258;2023-04-06T05:31:47;-2.70;1.00
5980;DHT22;3016;50.308;8.258;2023-04-06T05:34:49;-2.60;1.00
5980;DHT22;3016;50.308;8.258;2023-04-06T05:37:50;-2.60;1.00
5980;DHT22;3016;50.308;8.258;2023-04-06T05:40:51;-2.50;1.00
5980;DHT22;3016;50.308;8.258;2023-04-06T05:43:51;-2.50;1.00
5980;DHT22;3016;50.308;8.258;2023-04-06T05:46:52;-2.40;1.00
5980;DHT22;3016;50.308;8.258;2023-04-06T05:49:53;-2.40;1.00
5980;DHT22;3016;50.308;8.258;2023-04-06T05:52:53;-2.30;1.00
5980;DHT22;3016;50.308;8.258;2023-04-06T05:55:54;-2.20;1.00
5980;DHT22;3016;50.308;8.258;2023-04-06T05:58:55;-2.10;1.00
5980;DHT22;3016;50.308;8.258;2023-04-06T06:01:55;-2.00;1.00
5980;DHT22;3016;50.308;8.258;2023-04-06T06:04:56;-1.80;1.00
5980;DHT22;3016;50.308;8.258;2023-04-06T06:07:57;-1.60;1.00
5980;DHT22;3016;50.308;8.258;2023-04-06T06:10:57;-1.50;1.00
5980;DHT22;3016;50.308;8.258;2023-04-06T06:13:58;-1.30;1.00
5980;DHT22;3016;50.308;8.258;2023-04-06T06:16:59;-1.20;1.00
5980;DHT22;3016;50.308;8.258;2023-04-06T06:20:00;-1.00;1.00
5980;DHT22;3016;50.308;8.258;2023-04-06T06:23:00;-1.00;1.00
5980;DHT22;3016;50.308;8.258;2023-04-06T06:26:01;-0.90;1.00
5980;DHT22;3016;50.308;8.258;2023-04-06T06:29:02;-0.80;1.00
5980;DHT22;3016;50.308;8.258;2023-04-06T06:32:05;-0.60;1.00
5980;DHT22;3016;50.308;8.258;2023-04-06T06:35:05;-0.50;1.00
5980;DHT22;3016;50.308;8.258;2023-04-06T06:38:07;-0.40;1.00
5980;DHT22;3016;50.308;8.258;2023-04-06T06:41:07;-0.30;1.00
5980;DHT22;3016;50.308;8.258;2023-04-06T06:44:08;-0.20;1.00
5980;DHT22;3016;50.308;8.258;2023-04-06T06:59:51;0.50;1.00
5980;DHT22;3016;50.308;8.258;2023-04-06T07:18:57;2.20;1.00
5980;DHT22;3016;50.308;8.258;2023-04-06T07:35:37;4.40;1.00
5980;DHT22;3016;50.308;8.258;2023-04-06T07:38:38;5.10;1.00
5980;DHT22;3016;50.308;8.258;2023-04-06T07:41:43;5.60;1.00
5980;DHT22;3016;50.308;8.258;2023-04-06T07:44:45;6.00;1.00
5980;DHT22;3016;50.308;8.258;2023-04-06T07:47:48;6.50;1.00
5980;DHT22;3016;50.308;8.258;2023-04-06T07:50:50;6.80;1.00
5980;DHT22;3016;50.308;8.258;2023-04-06T07:53:54;7.20;1.00
5980;DHT22;3016;50.308;8.258;2023-04-06T07:56:55;7.60;1.00
5980;DHT22;3016;50.308;8.258;2023-04-06T07:59:57;7.90;1.00
5980;DHT22;3016;50.308;8.258;2023-04-06T08:02:58;8.10;1.00
5980;DHT22;3016;50.308;8.258;2023-04-06T08:05:59;8.20;1.00
5980;DHT22;3016;50.308;8.258;2023-04-06T08:09:01;8.60;1.00
5980;DHT22;3016;50.308;8.258;2023-04-06T08:12:03;8.80;1.00
5980;DHT22;3016;50.308;8.258;2023-04-06T08:15:05;9.00;1.00
5980;DHT22;3016;50.308;8.258;2023-04-06T08:18:08;9.00;1.00
5980;DHT22;3016;50.308;8.258;2023-04-06T08:21:09;9.10;1.00
5980;DHT22;3016;50.308;8.258;2023-04-06T08:24:11;9.30;1.00
5980;DHT22;3016;50.308;8.258;2023-04-06T08:27:12;9.50;1.00
5980;DHT22;3016;50.308;8.258;2023-04-06T08:33:47;9.70;1.00
5980;DHT22;3016;50.308;8.258;2023-04-06T08:36:49;10.00;1.00
5980;DHT22;3016;50.308;8.258;2023-04-06T08:43:08;10.50;1.00
5980;DHT22;3016;50.308;8.258;2023-04-06T08:46:12;10.50;1.00
5980;DHT22;3016;50.308;8.258;2023-04-06T08:49:14;10.80;1.00
5980;DHT22;3016;50.308;8.258;2023-04-06T08:52:18;11.00;1.00
5980;DHT22;3016;50.308;8.258;2023-04-06T08:55:20;11.20;1.00
5980;DHT22;3016;50.308;8.258;2023-04-06T08:58:21;11.50;1.00
5980;DHT22;3016;50.308;8.258;2023-04-06T09:01:29;11.70;1.00
5980;DHT22;3016;50.308;8.258;2023-04-06T20:06:28;7.40;1.00
5980;DHT22;3016;50.308;8.258;2023-04-06T20:28:33;7.20;1.00
5980;DHT22;3016;50.308;8.258;2023-04-06T20:31:43;7.20;1.00
5980;DHT22;3016;50.308;8.258;2023-04-06T20:50:37;7.00;1.00
5980;DHT22;3016;50.308;8.258;2023-04-06T20:56:48;6.90;1.00
5980;DHT22;3016;50.308;8.258;2023-04-06T20:59:49;7.00;1.00
5980;DHT22;3016;50.308;8.258;2023-04-06T21:02:50;6.90;1.00
5980;DHT22;3016;50.308;8.258;2023-04-06T21:34:29;6.70;2.40
5980;DHT22;3016;50.308;8.258;2023-04-06T21:59:41;6.50;7.80
5980;DHT22;3016;50.308;8.258;2023-04-06T22:05:53;6.50;10.90
5980;DHT22;3016;50.308;8.258;2023-04-06T22:08:56;6.50;10.90
5980;DHT22;3016;50.308;8.258;2023-04-06T22:12:30;6.50;11.90
5980;DHT22;3016;50.308;8.258;2023-04-06T22:15:31;6.50;13.30
5980;DHT22;3016;50.308;8.258;2023-04-06T22:18:32;6.50;14.40
5980;DHT22;3016;50.308;8.258;2023-04-06T22:21:34;6.50;13.70
5980;DHT22;3016;50.308;8.258;2023-04-06T22:24:35;6.40;15.30
5980;DHT22;3016;50.308;8.258;2023-04-06T22:27:36;6.40;16.40
5980;DHT22;3016;50.308;8.258;2023-04-06T22:30:37;6.40;16.80
5980;DHT22;3016;50.308;8.258;2023-04-06T22:36:48;6.40;18.10
5980;DHT22;3016;50.308;8.258;2023-04-06T22:39:51;6.40;18.10
5980;DHT22;3016;50.308;8.258;2023-04-06T22:42:56;6.40;16.20
5980;DHT22;3016;50.308;8.258;2023-04-06T22:45:59;6.40;16.40
5980;DHT22;3016;50.308;8.258;2023-04-06T22:49:02;6.40;17.10
5980;DHT22;3016;50.308;8.258;2023-04-06T22:52:05;6.30;17.30
5980;DHT22;3016;50.308;8.258;2023-04-06T23:05:21;6.40;22.10
5980;DHT22;3016;50.308;8.258;2023-04-06T23:08:23;6.40;22.70
5980;DHT22;3016;50.308;8.258;2023-04-06T23:14:34;6.30;24.40
5980;DHT22;3016;50.308;8.258;2023-04-06T23:17:47;6.30;26.30
5980;DHT22;3016;50.308;8.258;2023-04-06T23:24:03;6.30;29.80
5980;DHT22;3016;50.308;8.258;2023-04-06T23:27:05;6.30;30.20
5980;DHT22;3016;50.308;8.258;2023-04-06T23:30:08;6.30;31.40
5980;DHT22;3016;50.308;8.258;2023-04-06T23:33:10;6.30;32.10
5980;DHT22;3016;50.308;8.258;2023-04-06T23:45:42;6.30;32.80
5980;DHT22;3016;50.308;8.258;2023-04-06T23:48:45;6.20;32.30
5980;DHT22;3016;50.308;8.258;2023-04-06T23:51:49;6.20;32.10
